ADDS METAR Data INFO
IDs: Format: Raw Decoded Include TAF

Data at: 2044 UTC 16 Dec 2017

KPVF 162015Z AUTO 02009G21KT 320V050 10SM CLR 12/M12 A2990 RMK AO1
KPVF 161955Z AUTO 01015G24KT 10SM CLR 12/M12 A2990 RMK AO1
KPVF 161935Z AUTO 03016G26KT 10SM CLR 12/M13 A2990 RMK AO1
KPVF 161915Z AUTO 02014G26KT 10SM CLR 13/M14 A2989 RMK AO1
KPVF 161855Z AUTO 02013G21KT 10SM CLR 12/M13 A2989 RMK AO1
KPVF 161835Z AUTO 02015G26KT 10SM CLR 12/M10 A2989 RMK AO1
KPVF 161815Z AUTO 36006KT 10SM CLR 10/M04 A2990 RMK AO1
KPVF 161755Z AUTO 34004KT 10SM CLR 10/01 A2991 RMK AO1
KPVF 161735Z AUTO 34006KT 310V040 10SM CLR 10/00 A2992 RMK AO1
KPVF 161715Z AUTO 01008G15KT 340V050 10SM CLR 10/04 A2991 RMK AO1
KPVF 161655Z AUTO 36006KT 10SM CLR 10/M03 A2991 RMK AO1
KPVF 161635Z AUTO 01007KT 10SM CLR 10/M03 A2989 RMK AO1
KPVF 161615Z AUTO 01006G14KT 10SM CLR 10/M03 A2988 RMK AO1
KPVF 161555Z AUTO 04010G16KT 10SM CLR 10/M03 A2987 RMK AO1
KPVF 161535Z AUTO 07012G16KT 10SM CLR 10/M03 A2986 RMK AO1
KPVF 161515Z AUTO 07016G20KT 10SM CLR 10/M03 A2986 RMK AO1
KPVF 161455Z AUTO 06016G21KT 10SM CLR 10/M02 A2986 RMK AO1
KPVF 161435Z AUTO 05016G23KT 10SM CLR 10/M02 A2986 RMK AO1
KPVF 161415Z AUTO 05018G23KT 10SM CLR 10/M02 A2986 RMK AO1
KPVF 161355Z AUTO 05017G24KT 10SM CLR 11/01 A2986 RMK AO1
KPVF 161335Z AUTO 05014KT 10SM CLR 10/M02 A2986 RMK AO1
KPVF 161315Z AUTO 04009G16KT 10SM CLR 10/M02 A2987 RMK AO1
KPVF 161255Z AUTO 36007KT 330V030 10SM CLR 09/M02 A2987 RMK AO1
KPVF 161235Z AUTO 36007KT 10SM CLR 09/M02 A2987 RMK AO1
KPVF 161215Z AUTO 04008KT 10SM CLR 09/M02 A2987 RMK AO1
KPVF 161155Z AUTO 01006KT 10SM CLR 08/M02 A2987 RMK AO1
KPVF 161135Z AUTO 02005KT 10SM CLR 09/M02 A2988 RMK AO1
KPVF 161115Z AUTO 03007KT 10SM FEW075 09/M03 A2989 RMK AO1
KPVF 161055Z AUTO 06009KT 10SM BKN075 09/M03 A2990 RMK AO1
KPVF 161035Z AUTO 03003KT 10SM FEW075 09/M03 A2991 RMK AO1
KPVF 161015Z AUTO 08005KT 10SM CLR 08/M01 A2992 RMK AO1
KPVF 160955Z AUTO 11004KT 10SM CLR 08/00 A2992 RMK AO1
KPVF 160935Z AUTO 09007KT 10SM CLR 08/00 A2993 RMK AO1
KPVF 160915Z AUTO 04004KT 10SM CLR 09/00 A2994 RMK AO1
KPVF 160855Z AUTO 00000KT 10SM FEW060 SCT095 09/00 A2995 RMK AO1
KPVF 160835Z AUTO 00000KT 10SM FEW060 BKN095 OVC110 09/00 A2996 RMK AO1
KPVF 160815Z AUTO 35004KT 10SM BKN095 OVC110 08/02 A2997 RMK AO1
KPVF 160755Z AUTO 33006KT 10SM BKN095 OVC110 09/01 A2998 RMK AO1
KPVF 160735Z AUTO 31004KT 10SM SCT095 OVC110 10/M01 A2998 RMK AO1
KPVF 160715Z AUTO 00000KT 10SM FEW046 SCT070 OVC110 12/M03 A2998 RMK AO1
KPVF 160655Z AUTO 00000KT 10SM FEW060 SCT075 BKN120 12/M02 A2999 RMK AO1
KPVF 160635Z AUTO 00000KT 10SM FEW050 FEW085 BKN120 11/M02 A3000 RMK AO1
KPVF 160615Z AUTO 09005KT 10SM BKN120 10/M01 A3000 RMK AO1
KPVF 160555Z AUTO 04005KT 10SM FEW100 SCT120 10/00 A3001 RMK AO1
KPVF 160535Z AUTO 09008KT 10SM FEW100 BKN120 10/00 A3001 RMK AO1
KPVF 160515Z AUTO 02007KT 10SM FEW110 09/01 A3004 RMK AO1
KPVF 160455Z AUTO 34004KT 10SM CLR 10/02 A3004 RMK AO1
KPVF 160435Z AUTO 36004KT 10SM FEW120 09/03 A3004 RMK AO1
KPVF 160415Z AUTO 35006KT 10SM FEW110 09/03 A3005 RMK AO1
KPVF 160355Z AUTO 32005KT 10SM FEW120 10/00 A3006 RMK AO1
KPVF 160335Z AUTO 33006KT 10SM SCT120 12/00 A3005 RMK AO1
KPVF 160315Z AUTO 25003KT 10SM SCT110 13/M01 A3004 RMK AO1
KPVF 160255Z AUTO 00000KT 10SM SCT110 12/00 A3005 RMK AO1
KPVF 160235Z AUTO 13005KT 10SM SCT100 BKN120 12/00 A3005 RMK AO1
KPVF 160215Z AUTO 10006KT 10SM FEW100 BKN120 12/01 A3005 RMK AO1
KPVF 160155Z AUTO 10005KT 10SM FEW046 SCT120 13/00 A3006 RMK AO1
KPVF 160135Z AUTO 00000KT 10SM CLR 13/M06 A3007 RMK AO1
KPVF 160115Z AUTO 00000KT 10SM CLR 13/M03 A3008 RMK AO1
KPVF 160055Z AUTO 15003KT 10SM CLR 13/M03 A3008 RMK AO1
KPVF 160035Z AUTO 00000KT 10SM CLR 13/M03 A3008 RMK AO1
KPVF 160015Z AUTO 00000KT 10SM CLR 13/00 A3009 RMK AO1
KPVF 152355Z AUTO 00000KT 10SM CLR 13/02 A3009 RMK AO1
KPVF 152335Z AUTO 31003KT 10SM CLR 14/00 A3009 RMK AO1
KPVF 152315Z AUTO 00000KT 10SM CLR 15/M03 A3009 RMK AO1
KPVF 152255Z AUTO 00000KT 10SM CLR 15/M02 A3009 RMK AO1
KPVF 152235Z AUTO 00000KT 10SM CLR 15/M02 A3009 RMK AO1
KPVF 152215Z AUTO 25003KT 10SM CLR 16/04 A3010 RMK AO1
KPVF 152155Z AUTO 19003KT 10SM CLR 17/00 A3010 RMK AO1
KPVF 152135Z AUTO 21003KT 10SM CLR 18/02 A3012 RMK AO1
KPVF 152115Z AUTO 20003KT 10SM CLR 18/M01 A3013 RMK AO1
KPVF 152055Z AUTO 22003KT 10SM CLR 18/00 A3014 RMK AO1
KPVF 152035Z AUTO 00000KT 10SM CLR 18/M02 A3015 RMK AO1
KPVF 152015Z AUTO 19003KT 10SM CLR 18/08 A3016 RMK AO1
KPVF 151955Z AUTO 19003KT 10SM CLR 19/00 A3017 RMK AO1
KPVF 151935Z AUTO 16004KT 10SM CLR 19/M02 A3018 RMK AO1
KPVF 151915Z AUTO 16006KT 10SM CLR 18/M05 A3019 RMK AO1
KPVF 151855Z AUTO 15004KT 10SM CLR 17/M06 A3021 RMK AO1
KPVF 151835Z AUTO 14003KT 10SM CLR 17/M03 A3021 RMK AO1
KPVF 151815Z AUTO 14004KT 10SM CLR 18/M02 A3022 RMK AO1
KPVF 151755Z AUTO 00000KT 10SM CLR 16/01 A3022 RMK AO1
KPVF 151735Z AUTO 00000KT 10SM CLR 17/M05 A3022 RMK AO1
KPVF 151715Z AUTO 00000KT 10SM CLR 15/M09 A3022 RMK AO1
KPVF 151655Z AUTO 00000KT 10SM CLR 15/M12 A3021 RMK AO1
KPVF 151635Z AUTO 00000KT 10SM CLR 14/M07 A3021 RMK AO1
KPVF 151615Z AUTO 00000KT 10SM CLR 15/M06 A3020 RMK AO1
KPVF 151555Z AUTO 00000KT 10SM CLR 15/M12 A3020 RMK AO1
KPVF 151535Z AUTO 12005KT 10SM CLR 13/M10 A3019 RMK AO1
KPVF 151515Z AUTO 07005KT 10SM CLR 14/M10 A3020 RMK AO1
KPVF 151455Z AUTO 11003KT 10SM CLR 17/M13 A3020 RMK AO1
KPVF 151435Z AUTO 10007KT 10SM CLR 13/M10 A3019 RMK AO1
KPVF 151415Z AUTO 11008KT 10SM CLR 13/M10 A3020 RMK AO1
KPVF 151355Z AUTO 11007KT 10SM CLR 14/M10 A3020 RMK AO1
KPVF 151335Z AUTO 08006KT 10SM CLR 12/M08 A3021 RMK AO1
KPVF 151315Z AUTO 10004KT 10SM CLR 13/M08 A3021 RMK AO1
KPVF 151255Z AUTO 09006KT 10SM CLR 12/M08 A3021 RMK AO1
KPVF 151235Z AUTO 09007KT 10SM CLR 12/M07 A3020 RMK AO1
KPVF 151215Z AUTO 08010KT 10SM CLR 14/M08 A3021 RMK AO1
KPVF 151155Z AUTO 07008KT 10SM CLR 13/M07 A3022 RMK AO1
KPVF 151135Z AUTO 05006KT 10SM CLR 13/M07 A3023 RMK AO1
KPVF 151115Z AUTO 05007KT 10SM CLR 13/M06 A3023 RMK AO1
KPVF 151055Z AUTO 05008KT 10SM CLR 12/M05 A3023 RMK AO1
KPVF 151035Z AUTO 03006KT 10SM CLR 15/M05 A3023 RMK AO1
KPVF 151015Z AUTO 03005KT 10SM CLR 14/M06 A3023 RMK AO1
KPVF 150955Z AUTO 03006KT 10SM CLR 14/M06 A3023 RMK AO1
KPVF 150935Z AUTO 02003KT 10SM CLR 15/M06 A3023 RMK AO1
KPVF 150915Z AUTO 00000KT 10SM CLR 15/M05 A3023 RMK AO1
KPVF 150855Z AUTO 00000KT 10SM CLR 15/M05 A3023 RMK AO1